createdAt,value
2024-01-21T00:01:21.133Z,-0.10
2024-01-21T00:04:07.839Z,-0.10
2024-01-21T00:06:35.273Z,0.30
2024-01-21T00:09:02.823Z,-0.20
2024-01-21T00:11:30.186Z,-0.20
2024-01-21T00:13:57.608Z,-0.30
2024-01-21T00:16:24.898Z,0.30
2024-01-21T00:18:52.443Z,-0.30
2024-01-21T00:21:19.778Z,-0.30
2024-01-21T00:23:47.695Z,-0.30
2024-01-21T00:26:15.347Z,1.30
2024-01-21T00:28:42.935Z,-0.30
2024-01-21T00:31:10.104Z,-0.20
2024-01-21T00:33:37.889Z,0.10
2024-01-21T00:36:05.332Z,0.00
2024-01-21T00:38:32.834Z,-0.50
2024-01-21T00:41:00.034Z,-0.50
2024-01-21T00:43:27.557Z,-0.50
2024-01-21T00:45:54.785Z,-0.60
2024-01-21T00:48:22.463Z,-0.60
2024-01-21T00:50:49.694Z,-0.60
2024-01-21T00:53:17.186Z,-0.70
2024-01-21T00:55:44.323Z,-0.70
2024-01-21T00:58:11.794Z,0.30
2024-01-21T01:00:39.187Z,-0.60
2024-01-21T01:03:06.959Z,-0.60
2024-01-21T01:05:34.421Z,-0.50
2024-01-21T01:08:02.043Z,-0.60
2024-01-21T01:10:29.359Z,-0.60
2024-01-21T01:12:57.323Z,-0.60
2024-01-21T01:15:24.826Z,-0.60
2024-01-21T01:17:52.834Z,-0.60
2024-01-21T01:20:20.666Z,-0.60
2024-01-21T01:22:48.295Z,0.60
2024-01-21T01:25:15.674Z,-0.60
2024-01-21T01:27:43.351Z,-0.50
2024-01-21T01:30:11.699Z,-0.60
2024-01-21T01:32:39.334Z,-0.60
2024-01-21T01:35:07.341Z,-0.10
2024-01-21T01:37:34.942Z,-0.60
2024-01-21T01:40:02.509Z,-0.60
2024-01-21T01:42:30.168Z,-0.50
2024-01-21T01:44:57.720Z,-0.50
2024-01-21T01:47:26.229Z,-0.50
2024-01-21T01:49:55.301Z,0.40
2024-01-21T01:52:23.268Z,-0.40
2024-01-21T01:54:50.724Z,-0.30
2024-01-21T01:57:20.091Z,-0.30
2024-01-21T01:59:47.418Z,-0.30
2024-01-21T02:02:15.324Z,-0.20
2024-01-21T02:04:42.674Z,-0.20
2024-01-21T02:07:10.224Z,-0.10
2024-01-21T02:09:37.619Z,-0.10
2024-01-21T02:12:05.810Z,-0.20
2024-01-21T02:14:33.123Z,-0.20
2024-01-21T02:17:00.978Z,-0.30
2024-01-21T02:19:31.991Z,-0.30
2024-01-21T02:21:59.746Z,-0.30
2024-01-21T02:24:31.771Z,-0.30
2024-01-21T02:27:00.276Z,-0.10
2024-01-21T02:29:27.905Z,-0.50
2024-01-21T02:31:57.565Z,-0.50
2024-01-21T02:34:24.915Z,-0.60
2024-01-21T02:36:52.462Z,-0.70
2024-01-21T02:39:19.766Z,-0.80
2024-01-21T02:41:47.345Z,-0.90
2024-01-21T02:44:14.516Z,-0.90
2024-01-21T02:46:42.120Z,-1.00
2024-01-21T02:49:09.365Z,-1.00
2024-01-21T02:51:36.867Z,-1.00
2024-01-21T02:54:04.114Z,-1.10
2024-01-21T02:56:31.945Z,-1.10
2024-01-21T02:58:59.179Z,-1.20
2024-01-21T03:01:26.712Z,-0.90
2024-01-21T03:03:54.185Z,-0.10
2024-01-21T03:06:21.822Z,-1.20
2024-01-21T03:08:48.994Z,0.00
2024-01-21T03:11:16.888Z,-1.30
2024-01-21T03:13:44.067Z,-1.30
2024-01-21T03:16:12.988Z,-1.10
2024-01-21T03:18:40.455Z,-1.30
2024-01-21T03:21:08.514Z,-1.40
2024-01-21T03:23:35.858Z,-1.40
2024-01-21T03:26:03.470Z,-1.50
2024-01-21T03:28:30.669Z,-1.50
2024-01-21T03:30:58.533Z,-1.50
2024-01-21T03:33:27.106Z,-1.50
2024-01-21T03:35:54.913Z,-1.60
2024-01-21T03:38:22.175Z,-1.60
2024-01-21T03:40:49.832Z,-1.60
2024-01-21T03:43:19.126Z,-1.70
2024-01-21T03:45:46.797Z,-0.50
2024-01-21T03:48:14.387Z,-1.80
2024-01-21T03:50:41.982Z,-1.80
2024-01-21T03:53:09.284Z,-1.90
2024-01-21T03:55:36.907Z,-1.90
2024-01-21T03:58:04.369Z,-1.00
2024-01-21T04:00:32.024Z,-2.10
2024-01-21T04:02:59.288Z,-2.20
2024-01-21T04:05:26.905Z,-1.80
2024-01-21T04:07:54.034Z,-2.40
2024-01-21T04:10:21.841Z,-2.50
2024-01-21T04:12:49.216Z,-2.60
2024-01-21T04:15:16.836Z,-2.60
2024-01-21T04:17:44.301Z,-2.70
2024-01-21T04:20:12.298Z,-2.70
2024-01-21T04:22:39.504Z,-2.80
2024-01-21T04:25:07.414Z,-2.40
2024-01-21T04:27:34.662Z,-2.90
2024-01-21T04:30:02.277Z,-2.40
2024-01-21T04:32:29.524Z,-3.00
2024-01-21T04:34:57.027Z,-3.10
2024-01-21T04:37:24.344Z,-3.10
2024-01-21T04:39:52.055Z,-3.20
2024-01-21T04:42:19.369Z,-3.20
2024-01-21T04:44:46.963Z,-3.30
2024-01-21T04:47:14.136Z,-2.10
2024-01-21T04:49:41.817Z,-3.40
2024-01-21T04:52:09.189Z,-3.50
2024-01-21T04:54:37.720Z,-3.50
2024-01-21T04:57:05.239Z,-3.60
2024-01-21T04:59:32.791Z,-3.70
2024-01-21T05:01:59.955Z,-3.70
2024-01-21T05:04:27.605Z,-3.70
2024-01-21T05:06:55.107Z,-3.70
2024-01-21T05:09:22.610Z,-3.70
2024-01-21T05:11:49.866Z,-3.70
2024-01-21T05:14:17.404Z,-3.70
2024-01-21T05:16:44.584Z,-3.00
2024-01-21T05:19:15.613Z,-3.60
2024-01-21T05:21:43.035Z,-3.60
2024-01-21T05:24:10.531Z,-3.60
2024-01-21T05:26:47.053Z,-3.50
2024-01-21T05:29:14.816Z,-3.40
2024-01-21T05:31:42.036Z,-3.40
2024-01-21T05:34:09.581Z,-3.30
2024-01-21T05:36:36.914Z,-3.30
2024-01-21T05:39:04.956Z,-3.10
2024-01-21T05:41:33.428Z,-3.20
2024-01-21T05:44:00.877Z,-3.20
2024-01-21T05:46:28.148Z,-3.20
2024-01-21T05:48:55.689Z,-3.10
2024-01-21T05:51:23.268Z,-3.20
2024-01-21T05:53:51.142Z,-3.10
2024-01-21T05:56:19.465Z,-2.80
2024-01-21T05:58:47.055Z,-3.20
2024-01-21T06:01:15.526Z,-3.20
2024-01-21T06:03:43.301Z,-3.20
2024-01-21T06:06:11.360Z,-3.20
2024-01-21T06:08:38.939Z,-3.20
2024-01-21T06:11:06.194Z,-3.10
2024-01-21T06:13:33.865Z,-3.20
2024-01-21T06:16:02.635Z,-3.10
2024-01-21T06:18:31.191Z,-3.20
2024-01-21T06:20:58.497Z,-3.10
2024-01-21T06:23:25.936Z,-3.10
2024-01-21T06:25:53.097Z,-3.10
2024-01-21T06:28:20.663Z,-2.50
2024-01-21T06:30:47.951Z,-3.00
2024-01-21T06:33:15.707Z,-2.90
2024-01-21T06:35:43.192Z,-2.90
2024-01-21T06:38:10.840Z,-2.80
2024-01-21T06:40:38.035Z,-2.80
2024-01-21T06:43:05.619Z,-2.70
2024-01-21T06:45:32.873Z,-2.70
2024-01-21T06:48:00.585Z,-2.60
2024-01-21T06:50:28.701Z,-2.60
2024-01-21T06:52:56.301Z,-2.50
2024-01-21T06:55:23.828Z,-2.50
2024-01-21T06:57:51.557Z,-2.50
2024-01-21T07:00:19.660Z,-2.40
2024-01-21T07:02:47.308Z,-2.50
2024-01-21T07:05:14.662Z,-2.50
2024-01-21T07:07:42.167Z,-2.40
2024-01-21T07:10:09.709Z,-2.50
2024-01-21T07:12:37.215Z,-2.50
2024-01-21T07:15:04.907Z,-2.50
2024-01-21T07:17:32.577Z,-2.50
2024-01-21T07:20:04.637Z,-2.50
2024-01-21T07:22:32.258Z,-2.50
2024-01-21T07:25:00.819Z,-2.60
2024-01-21T07:27:29.260Z,-2.50
2024-01-21T07:29:56.665Z,-2.70
2024-01-21T07:32:24.157Z,-2.80
2024-01-21T07:34:51.807Z,-2.60
2024-01-21T07:37:19.504Z,-2.90
2024-01-21T07:39:46.896Z,-2.50
2024-01-21T07:42:14.460Z,-3.00
2024-01-21T07:44:41.966Z,-3.00
2024-01-21T07:47:09.503Z,-1.90
2024-01-21T07:49:37.496Z,-3.10
2024-01-21T07:52:05.510Z,-3.00
2024-01-21T07:54:32.823Z,-3.00
2024-01-21T07:57:00.268Z,-1.60
2024-01-21T07:59:27.575Z,-2.90
2024-01-21T08:01:55.094Z,-2.90
2024-01-21T08:04:22.438Z,-2.90
2024-01-21T08:06:50.346Z,-1.60
2024-01-21T08:09:22.210Z,-2.80
2024-01-21T08:11:50.765Z,-2.80
2024-01-21T08:14:18.103Z,-2.80
2024-01-21T08:16:45.604Z,-1.40
2024-01-21T08:19:12.949Z,-2.70
2024-01-21T08:21:40.515Z,-2.60
2024-01-21T08:24:07.721Z,-2.50
2024-01-21T08:26:35.286Z,-2.40
2024-01-21T08:29:02.472Z,-2.40
2024-01-21T08:31:30.050Z,-2.30
2024-01-21T08:33:57.545Z,-0.90
2024-01-21T08:36:24.772Z,-2.10
2024-01-21T08:38:52.936Z,-1.90
2024-01-21T08:41:20.183Z,-1.40
2024-01-21T08:43:47.743Z,-1.70
2024-01-21T08:46:15.404Z,-1.50
2024-01-21T08:48:46.067Z,-1.40
2024-01-21T08:51:13.800Z,-1.20
2024-01-21T08:53:41.321Z,-1.00
2024-01-21T08:56:08.507Z,-1.00
2024-01-21T08:58:36.273Z,-0.60
2024-01-21T09:01:03.665Z,-0.80
2024-01-21T09:03:31.961Z,-0.80
2024-01-21T09:05:59.263Z,-0.70
2024-01-21T09:08:26.849Z,-0.70
2024-01-21T09:10:54.094Z,-0.60
2024-01-21T09:13:21.588Z,-0.20
2024-01-21T09:15:49.046Z,-0.60
2024-01-21T09:18:16.812Z,-0.20
2024-01-21T09:20:45.109Z,-0.70
2024-01-21T09:23:12.730Z,0.50
2024-01-21T09:25:39.921Z,-0.70
2024-01-21T09:28:08.008Z,0.40
2024-01-21T09:30:35.270Z,-0.60
2024-01-21T09:33:02.918Z,-0.60
2024-01-21T09:35:30.406Z,0.50
2024-01-21T09:37:58.006Z,-0.40
2024-01-21T09:40:25.339Z,-0.30
2024-01-21T09:42:52.981Z,-0.30
2024-01-21T09:45:22.978Z,-0.30
2024-01-21T09:47:54.388Z,-0.20
2024-01-21T09:50:22.916Z,0.10
2024-01-21T09:52:50.744Z,-0.30
2024-01-21T09:55:18.213Z,0.50
2024-01-21T09:57:46.479Z,-0.10
2024-01-21T10:00:15.403Z,0.10
2024-01-21T10:02:44.231Z,0.30
2024-01-21T10:05:11.552Z,0.50
2024-01-21T10:07:40.866Z,0.80
2024-01-21T10:10:08.711Z,0.80
2024-01-21T10:12:36.442Z,0.70
2024-01-21T10:15:03.943Z,0.70
2024-01-21T10:17:31.532Z,0.70
2024-01-21T10:19:59.713Z,0.70
2024-01-21T10:22:27.344Z,0.70
2024-01-21T10:24:54.744Z,0.80
2024-01-21T10:27:22.894Z,0.80
2024-01-21T10:29:50.243Z,0.80
2024-01-21T10:32:19.459Z,0.80
2024-01-21T10:34:51.245Z,0.90
2024-01-21T10:37:19.134Z,1.20
2024-01-21T10:39:51.237Z,1.20
2024-01-21T10:42:19.015Z,1.40
2024-01-21T10:44:48.147Z,1.60
2024-01-21T10:47:18.852Z,2.00
2024-01-21T10:49:49.870Z,2.40
2024-01-21T10:52:18.662Z,2.60
2024-01-21T10:54:47.460Z,2.60
2024-01-21T10:57:15.131Z,2.60
2024-01-21T10:59:43.387Z,2.50
2024-01-21T11:02:11.773Z,2.30
2024-01-21T11:04:39.257Z,2.10
2024-01-21T11:07:07.741Z,2.00
2024-01-21T11:09:37.817Z,1.90
2024-01-21T11:12:05.950Z,1.80
2024-01-21T11:14:38.210Z,1.70
2024-01-21T11:17:08.187Z,1.70
2024-01-21T11:19:50.969Z,1.70
2024-01-21T11:22:21.742Z,1.60
2024-01-21T11:24:49.751Z,1.70
2024-01-21T11:27:19.545Z,1.60
2024-01-21T11:29:53.886Z,1.80
2024-01-21T11:32:29.786Z,1.50
2024-01-21T11:35:06.543Z,1.40
2024-01-21T11:37:35.232Z,1.40
2024-01-21T11:40:04.031Z,1.30
2024-01-21T11:42:36.233Z,1.20
2024-01-21T11:45:04.723Z,1.20
2024-01-21T11:47:33.798Z,1.10
2024-01-21T11:50:04.610Z,1.10
2024-01-21T11:52:32.398Z,1.20
2024-01-21T11:55:00.182Z,1.00
2024-01-21T11:57:29.241Z,1.00
2024-01-21T11:59:56.746Z,1.00
2024-01-21T12:02:25.868Z,1.00
2024-01-21T12:04:55.954Z,1.00
2024-01-21T12:07:26.766Z,1.00
2024-01-21T12:09:54.679Z,1.00
2024-01-21T12:12:22.415Z,1.00
2024-01-21T12:14:51.994Z,0.90
2024-01-21T12:17:21.276Z,1.30
2024-01-21T12:19:48.845Z,1.10
2024-01-21T12:22:16.581Z,1.20
2024-01-21T12:24:44.280Z,1.20
2024-01-21T12:27:15.458Z,1.20
2024-01-21T12:29:43.040Z,1.30
2024-01-21T12:32:10.915Z,1.40
2024-01-21T12:34:38.442Z,1.50
2024-01-21T12:37:08.537Z,1.50
2024-01-21T12:39:36.020Z,1.50
2024-01-21T12:42:03.608Z,1.40
2024-01-21T12:44:30.754Z,1.40
2024-01-21T12:46:58.845Z,1.40
2024-01-21T12:49:28.881Z,1.40
2024-01-21T12:51:56.555Z,1.30
2024-01-21T12:54:23.755Z,1.30
2024-01-21T12:56:51.247Z,1.30
2024-01-21T12:59:20.106Z,1.40
2024-01-21T13:01:47.738Z,1.40
2024-01-21T13:04:15.051Z,1.40
2024-01-21T13:06:42.725Z,1.40
2024-01-21T13:09:10.196Z,1.50
2024-01-21T13:11:37.707Z,1.50
2024-01-21T13:14:05.172Z,1.60
2024-01-21T13:16:34.818Z,1.60
2024-01-21T13:19:02.454Z,1.70
2024-01-21T13:21:30.201Z,1.70
2024-01-21T13:23:57.385Z,1.70
2024-01-21T13:26:26.537Z,1.70
2024-01-21T13:29:10.526Z,1.70
2024-01-21T13:31:39.554Z,1.70
2024-01-21T13:34:07.268Z,1.70
2024-01-21T13:36:36.671Z,1.70
2024-01-21T13:39:05.729Z,1.70
2024-01-21T13:41:33.419Z,1.70
2024-01-21T13:44:00.596Z,1.70
2024-01-21T13:46:28.118Z,1.70
2024-01-21T13:48:55.582Z,1.70
2024-01-21T13:51:23.393Z,1.70
2024-01-21T13:53:50.706Z,1.70
2024-01-21T13:56:18.691Z,1.70
2024-01-21T13:58:45.977Z,1.60
2024-01-21T14:01:14.107Z,1.60
2024-01-21T14:03:41.630Z,1.60
2024-01-21T14:06:09.244Z,1.60
2024-01-21T14:08:36.497Z,1.60
2024-01-21T14:11:04.136Z,1.60
2024-01-21T14:13:31.850Z,1.60
2024-01-21T14:15:59.333Z,1.70
2024-01-21T14:18:26.650Z,1.60
2024-01-21T14:20:54.308Z,1.60
2024-01-21T14:23:21.572Z,1.60
2024-01-21T14:25:49.518Z,1.70
2024-01-21T14:28:16.940Z,1.60
2024-01-21T14:30:44.527Z,1.60
2024-01-21T14:33:11.774Z,1.60
2024-01-21T14:35:39.416Z,1.60
2024-01-21T14:38:06.602Z,1.60
2024-01-21T14:40:34.077Z,1.60
2024-01-21T14:43:01.478Z,1.60
2024-01-21T14:45:29.178Z,1.60
2024-01-21T14:47:56.718Z,1.60
2024-01-21T14:50:24.209Z,1.60
2024-01-21T14:52:52.053Z,1.60
2024-01-21T14:55:19.975Z,1.60
2024-01-21T14:57:47.413Z,1.60
2024-01-21T15:00:17.680Z,1.70
2024-01-21T15:02:44.952Z,1.60
2024-01-21T15:05:12.576Z,1.60
2024-01-21T15:07:44.849Z,1.60
2024-01-21T15:10:16.123Z,1.60
2024-01-21T15:12:43.352Z,1.60
2024-01-21T15:15:30.201Z,1.50
2024-01-21T15:17:59.726Z,1.60
2024-01-21T15:20:28.847Z,1.50
2024-01-21T15:22:56.374Z,1.50
2024-01-21T15:25:24.256Z,1.50
2024-01-21T15:27:51.439Z,1.50
2024-01-21T15:30:19.167Z,1.50
2024-01-21T15:32:46.624Z,1.50
2024-01-21T15:35:14.595Z,1.50
2024-01-21T15:37:42.207Z,1.50
2024-01-21T15:40:10.119Z,1.40
2024-01-21T15:42:37.527Z,1.50
2024-01-21T15:45:11.360Z,1.50
2024-01-21T15:47:39.982Z,1.40
2024-01-21T15:50:08.426Z,1.40
2024-01-21T15:52:36.816Z,1.40
2024-01-21T15:55:05.281Z,1.40
2024-01-21T15:57:32.504Z,1.40
2024-01-21T16:00:00.751Z,1.40
2024-01-21T16:02:28.110Z,1.40
2024-01-21T16:04:55.749Z,1.30
2024-01-21T16:07:23.674Z,1.30
2024-01-21T16:09:54.509Z,1.30
2024-01-21T16:12:24.092Z,1.60
2024-01-21T16:14:52.195Z,1.30
2024-01-21T16:17:19.495Z,1.20
2024-01-21T16:19:48.483Z,1.20
2024-01-21T16:22:17.097Z,1.10
2024-01-21T16:24:44.794Z,1.10
2024-01-21T16:27:19.666Z,1.10
2024-01-21T16:29:51.774Z,1.80
2024-01-21T16:32:19.080Z,1.00
2024-01-21T16:34:55.363Z,1.10
2024-01-21T16:37:27.561Z,1.10
2024-01-21T16:39:55.871Z,1.10
2024-01-21T16:42:23.351Z,1.00
2024-01-21T16:44:52.905Z,1.00
2024-01-21T16:47:20.155Z,1.00
2024-01-21T16:49:47.744Z,1.00
2024-01-21T16:52:22.000Z,1.10
2024-01-21T16:54:49.377Z,1.10
2024-01-21T16:57:16.505Z,1.10
2024-01-21T16:59:50.588Z,1.00
2024-01-21T17:02:19.578Z,1.00
2024-01-21T17:04:47.848Z,1.00
2024-01-21T17:07:15.178Z,1.00
2024-01-21T17:09:42.680Z,1.00
2024-01-21T17:12:37.844Z,1.00
2024-01-21T17:15:06.504Z,1.00
2024-01-21T17:17:33.753Z,1.00
2024-01-21T17:20:01.210Z,2.90
2024-01-21T17:22:28.388Z,1.00
2024-01-21T17:24:55.826Z,1.00
2024-01-21T17:27:25.739Z,1.00
2024-01-21T17:29:53.269Z,1.00
2024-01-21T17:32:20.472Z,1.00
2024-01-21T17:34:47.856Z,1.00
2024-01-21T17:37:17.495Z,1.00
2024-01-21T17:39:45.089Z,1.00
2024-01-21T17:42:12.794Z,1.00
2024-01-21T17:44:40.578Z,1.00
2024-01-21T17:47:07.764Z,0.90
2024-01-21T17:49:35.312Z,0.90
2024-01-21T17:52:03.931Z,1.00
2024-01-21T17:54:32.293Z,1.00
2024-01-21T17:56:59.523Z,1.00
2024-01-21T17:59:27.181Z,0.90
2024-01-21T18:01:54.273Z,1.00
2024-01-21T18:04:21.645Z,1.00
2024-01-21T18:06:48.782Z,1.00
2024-01-21T18:09:17.747Z,1.00
2024-01-21T18:11:45.201Z,1.00
2024-01-21T18:14:12.584Z,1.00
2024-01-21T18:16:39.770Z,0.90
2024-01-21T18:19:07.823Z,0.90
2024-01-21T18:21:36.457Z,1.00
2024-01-21T18:24:07.476Z,0.90
2024-01-21T18:26:35.516Z,0.90
2024-01-21T18:29:15.849Z,0.90
2024-01-21T18:31:51.477Z,0.80
2024-01-21T18:34:23.407Z,0.90
2024-01-21T18:36:50.695Z,0.80
2024-01-21T18:39:18.163Z,0.80
2024-01-21T18:41:45.297Z,0.80
2024-01-21T18:44:12.831Z,0.80
2024-01-21T18:46:39.896Z,0.80
2024-01-21T18:49:07.491Z,0.80
2024-01-21T18:51:34.714Z,0.80
2024-01-21T18:54:02.089Z,0.80
2024-01-21T18:56:29.304Z,0.80
2024-01-21T18:58:57.282Z,0.80
2024-01-21T19:01:24.392Z,0.80
2024-01-21T19:03:51.799Z,0.80
2024-01-21T19:06:22.759Z,0.80
2024-01-21T19:08:50.815Z,0.80
2024-01-21T19:11:18.231Z,0.80
2024-01-21T19:13:46.438Z,0.80
2024-01-21T19:16:13.904Z,0.80
2024-01-21T19:18:44.133Z,0.80
2024-01-21T19:21:13.271Z,0.80
2024-01-21T19:23:40.721Z,0.80
2024-01-21T19:26:08.507Z,0.80
2024-01-21T19:28:35.972Z,0.80
2024-01-21T19:31:03.047Z,0.80
2024-01-21T19:33:30.513Z,0.80
2024-01-21T19:35:57.676Z,0.80
2024-01-21T19:38:26.116Z,0.70
2024-01-21T19:40:53.211Z,0.70
2024-01-21T19:43:23.410Z,0.70
2024-01-21T19:45:50.710Z,1.90
2024-01-21T19:48:18.200Z,0.70
2024-01-21T19:50:45.413Z,0.70
2024-01-21T19:53:12.850Z,0.70
2024-01-21T19:55:40.005Z,0.70
2024-01-21T19:58:07.563Z,0.70
2024-01-21T20:00:34.942Z,0.70
2024-01-21T20:03:02.273Z,0.70
2024-01-21T20:05:29.876Z,0.60
2024-01-21T20:07:57.331Z,0.70
2024-01-21T20:10:24.464Z,0.70
2024-01-21T20:12:52.292Z,0.60
2024-01-21T20:15:19.718Z,0.60
2024-01-21T20:17:47.208Z,0.60
2024-01-21T20:20:14.402Z,0.60
2024-01-21T20:22:42.747Z,0.60
2024-01-21T20:25:10.058Z,0.60
2024-01-21T20:27:38.154Z,0.50
2024-01-21T20:30:06.708Z,0.60
2024-01-21T20:32:34.358Z,0.60
2024-01-21T20:35:01.968Z,0.60
2024-01-21T20:37:29.477Z,0.60
2024-01-21T20:39:56.581Z,0.60
2024-01-21T20:42:24.025Z,1.30
2024-01-21T20:44:51.168Z,0.70
2024-01-21T20:47:18.735Z,0.70
2024-01-21T20:49:46.351Z,0.70
2024-01-21T20:52:15.075Z,0.70
2024-01-21T20:54:42.964Z,0.70
2024-01-21T20:57:10.475Z,0.70
2024-01-21T20:59:37.638Z,0.70
2024-01-21T21:02:05.251Z,0.70
2024-01-21T21:04:33.517Z,0.80
2024-01-21T21:07:01.729Z,0.80
2024-01-21T21:09:28.958Z,0.80
2024-01-21T21:11:56.348Z,0.90
2024-01-21T21:14:23.625Z,0.80
2024-01-21T21:16:51.034Z,0.70
2024-01-21T21:19:18.366Z,0.70
2024-01-21T21:21:46.064Z,0.80
2024-01-21T21:24:16.594Z,0.70
2024-01-21T21:26:44.207Z,0.70
2024-01-21T21:29:11.688Z,0.70
2024-01-21T21:31:39.048Z,0.80
2024-01-21T21:34:06.682Z,0.80
2024-01-21T21:36:35.166Z,0.80
2024-01-21T21:39:03.833Z,0.80
2024-01-21T21:41:31.867Z,0.80
2024-01-21T21:43:59.373Z,0.80
2024-01-21T21:46:26.689Z,0.80
2024-01-21T21:48:54.133Z,0.80
2024-01-21T21:51:22.323Z,0.80
2024-01-21T21:53:50.948Z,0.80
2024-01-21T21:56:18.931Z,0.80
2024-01-21T21:58:46.475Z,0.80
2024-01-21T22:01:19.714Z,0.80
2024-01-21T22:03:48.127Z,0.80
2024-01-21T22:06:18.399Z,0.80
2024-01-21T22:08:46.231Z,0.80
2024-01-21T22:11:14.144Z,0.80
2024-01-21T22:13:41.468Z,0.80
2024-01-21T22:16:09.858Z,0.80
2024-01-21T22:18:38.217Z,0.90
2024-01-21T22:21:16.503Z,0.90
2024-01-21T22:23:44.097Z,0.90
2024-01-21T22:26:11.768Z,0.90
2024-01-21T22:28:39.677Z,0.80
2024-01-21T22:31:10.056Z,0.90
2024-01-21T22:33:37.368Z,0.90
2024-01-21T22:36:05.061Z,0.90
2024-01-21T22:38:32.929Z,0.80
2024-01-21T22:41:00.302Z,0.80
2024-01-21T22:43:27.532Z,0.90
2024-01-21T22:45:55.141Z,0.90
2024-01-21T22:48:22.494Z,0.80
2024-01-21T22:50:50.266Z,0.80
2024-01-21T22:53:18.681Z,0.80
2024-01-21T22:55:46.973Z,0.70
2024-01-21T22:58:13.978Z,0.70
2024-01-21T23:00:41.673Z,0.70
2024-01-21T23:03:09.061Z,0.70
2024-01-21T23:05:36.674Z,0.70
2024-01-21T23:08:04.000Z,0.70
2024-01-21T23:10:31.301Z,0.70
2024-01-21T23:12:58.384Z,0.70
2024-01-21T23:15:25.738Z,0.70
2024-01-21T23:17:52.896Z,0.70
2024-01-21T23:20:20.372Z,0.70
2024-01-21T23:22:47.416Z,0.70
2024-01-21T23:25:14.835Z,0.70
2024-01-21T23:27:42.256Z,0.70
2024-01-21T23:30:10.021Z,0.70
2024-01-21T23:32:37.259Z,0.70
2024-01-21T23:35:05.037Z,0.70
2024-01-21T23:37:32.093Z,0.70
2024-01-21T23:39:59.579Z,0.70
2024-01-21T23:42:26.646Z,0.70
2024-01-21T23:44:54.055Z,0.60
2024-01-21T23:47:21.213Z,0.60
2024-01-21T23:49:48.560Z,0.60
2024-01-21T23:52:15.643Z,0.60
2024-01-21T23:54:44.338Z,0.60
2024-01-21T23:57:12.114Z,0.70
2024-01-21T23:59:39.823Z,0.60
